Time;durP1;ratioP1;P1;durP2;ratioP2;P2;SDS_P1;SDS_P2;PMS_P1;PMS_P2;Temp;Humidity;BMP_temperature;BMP_pressure;BME280_temperature;BME280_humidity;BME280_pressure;Samples;Min_cycle;Max_cycle;Signal;HPM_P1;HPM_P2
2022/08/05 00:00:22;;;;;;;10.50;5.87;;;20.20;99.90;;;;;;5002881;28;20441;-75
2022/08/05 00:02:53;;;;;;;9.13;5.80;;;20.20;99.90;;;;;;4998775;28;20433;-76
2022/08/05 00:05:22;;;;;;;7.47;5.33;;;20.20;99.90;;;;;;4997329;28;20465;-75
2022/08/05 00:08:11;;;;;;;8.00;5.33;;;20.20;99.90;;;;;;4999008;28;20791;-75
2022/08/05 00:11:00;;;;;;;7.33;5.40;;;20.10;99.90;;;;;;4995061;28;20484;-76
2022/08/05 00:13:31;;;;;;;9.17;5.50;;;20.10;99.90;;;;;;4977191;28;20862;-75
2022/08/05 00:16:09;;;;;;;6.80;5.00;;;20.10;99.90;;;;;;4992645;28;20868;-75
2022/08/05 00:18:41;;;;;;;8.00;4.40;;;20.10;99.90;;;;;;4994233;28;20516;-75
2022/08/05 00:21:12;;;;;;;8.60;5.40;;;20.10;99.90;;;;;;4994330;28;20437;-75
2022/08/05 00:23:44;;;;;;;8.30;5.70;;;20.10;99.90;;;;;;4994310;28;20768;-75
2022/08/05 00:26:32;;;;;;;7.60;5.30;;;20.10;99.90;;;;;;4993872;28;20444;-75
2022/08/05 00:29:00;;;;;;;8.70;5.40;;;20.10;99.90;;;;;;4994015;28;20429;-75
2022/08/05 00:31:29;;;;;;;10.10;6.20;;;20.10;99.90;;;;;;4992576;28;20464;-75
2022/08/05 00:34:17;;;;;;;5.93;5.30;;;20.10;99.90;;;;;;4976520;28;20475;-75
2022/08/05 00:37:05;;;;;;;7.17;5.53;;;20.00;99.90;;;;;;4993887;28;20895;-75
2022/08/05 00:39:42;;;;;;;9.50;5.77;;;20.00;99.90;;;;;;4993777;28;20792;-75
2022/08/05 00:42:34;;;;;;;7.40;5.67;;;20.00;99.90;;;;;;4993697;28;21001;-75
2022/08/05 00:45:04;;;;;;;7.83;6.50;;;20.00;99.90;;;;;;4993940;28;20842;-75
2022/08/05 00:47:36;;;;;;;11.77;6.17;;;20.00;99.90;;;;;;4976287;28;20870;-75
2022/08/05 00:50:24;;;;;;;8.40;5.97;;;19.90;99.90;;;;;;4993609;28;20468;-75
2022/08/05 00:52:53;;;;;;;7.80;5.53;;;19.90;99.90;;;;;;4976325;28;20453;-76
2022/08/05 00:55:24;;;;;;;14.63;7.37;;;19.90;99.90;;;;;;4975926;28;20994;-75
2022/08/05 00:58:11;;;;;;;6.30;5.17;;;19.90;99.90;;;;;;4993635;28;20491;-75
2022/08/05 01:00:41;;;;;;;7.50;5.53;;;19.80;99.90;;;;;;4992964;28;20981;-75
2022/08/05 01:03:10;;;;;;;6.90;6.00;;;19.80;99.90;;;;;;4993612;28;20954;-75
2022/08/05 01:05:50;;;;;;;7.40;6.00;;;19.80;99.90;;;;;;4995421;28;20443;-75
2022/08/05 01:08:22;;;;;;;7.10;5.70;;;19.70;99.90;;;;;;4979455;28;20934;-75
2022/08/05 01:11:13;;;;;;;7.93;6.60;;;19.70;99.90;;;;;;4997115;28;20456;-75
2022/08/05 01:14:05;;;;;;;9.77;5.60;;;19.70;99.90;;;;;;4996787;28;20948;-75
2022/08/05 01:16:47;;;;;;;8.13;6.60;;;19.70;99.90;;;;;;4996913;28;20433;-75
2022/08/05 01:19:26;;;;;;;7.13;5.50;;;19.70;99.90;;;;;;4997233;28;20444;-75
2022/08/05 01:22:24;;;;;;;7.70;5.43;;;19.70;99.90;;;;;;4995813;28;20441;-75
2022/08/05 01:25:24;;;;;;;7.40;5.90;;;19.60;99.90;;;;;;4995723;28;21008;-75
2022/08/05 01:28:27;;;;;;;9.53;6.70;;;19.60;99.90;;;;;;4995297;28;20492;-75
2022/08/05 01:31:01;;;;;;;7.67;6.13;;;19.60;99.90;;;;;;4996513;28;20504;-75
2022/08/05 01:33:35;;;;;;;10.83;5.93;;;19.60;99.90;;;;;;4996668;28;20926;-75
2022/08/05 01:36:10;;;;;;;7.87;5.30;;;19.50;99.90;;;;;;4979082;28;20448;-75
2022/08/05 01:38:45;;;;;;;10.43;5.63;;;19.50;99.90;;;;;;4996834;28;20437;-75
2022/08/05 01:41:20;;;;;;;9.20;5.90;;;19.50;99.90;;;;;;4996920;28;20467;-75
2022/08/05 01:43:51;;;;;;;7.60;5.80;;;19.50;99.90;;;;;;4996649;28;20461;-75
2022/08/05 01:46:21;;;;;;;8.13;5.83;;;19.50;99.90;;;;;;4997152;28;20465;-75
2022/08/05 01:49:13;;;;;;;7.50;5.90;;;19.40;99.90;;;;;;4995120;28;20931;-75
2022/08/05 01:51:56;;;;;;;7.10;5.27;;;19.40;99.90;;;;;;4996472;28;20465;-76
2022/08/05 01:54:28;;;;;;;7.33;5.60;;;19.40;99.90;;;;;;4978952;28;20519;-76
2022/08/05 01:56:59;;;;;;;8.53;5.80;;;19.40;99.90;;;;;;4996736;28;20441;-76
2022/08/05 01:59:51;;;;;;;6.63;5.37;;;19.40;99.90;;;;;;4995146;28;20441;-75
2022/08/05 02:02:22;;;;;;;6.43;5.83;;;19.40;99.90;;;;;;4996443;28;20418;-75
2022/08/05 02:05:00;;;;;;;8.10;6.50;;;19.30;99.90;;;;;;4994880;28;20908;-76
2022/08/05 02:07:31;;;;;;;7.07;6.37;;;19.20;99.90;;;;;;4996176;28;20512;-75
2022/08/05 02:10:01;;;;;;;6.50;5.97;;;19.20;99.90;;;;;;4996371;28;20895;-75
2022/08/05 02:12:36;;;;;;;7.20;5.70;;;19.20;99.90;;;;;;4978576;28;20886;-75
2022/08/05 02:15:09;;;;;;;7.80;6.17;;;19.10;99.90;;;;;;4995771;28;20503;-75
2022/08/05 02:17:48;;;;;;;6.83;6.10;;;19.10;99.90;;;;;;4995393;28;20420;-75
2022/08/05 02:20:47;;;;;;;11.60;6.60;;;19.00;99.90;;;;;;4978160;28;20830;-75
2022/08/05 02:23:20;;;;;;;7.57;5.50;;;19.00;99.90;;;;;;4978186;28;20451;-75
2022/08/05 02:25:51;;;;;;;6.27;5.63;;;19.00;99.90;;;;;;4995458;28;21017;-75
2022/08/05 02:28:24;;;;;;;8.20;6.00;;;19.00;99.90;;;;;;4977967;28;20453;-75
2022/08/05 02:31:02;;;;;;;7.37;5.63;;;19.00;99.90;;;;;;4995405;28;20511;-75
2022/08/05 02:33:36;;;;;;;7.90;6.27;;;19.00;99.90;;;;;;4978002;28;20495;-75
2022/08/05 02:36:12;;;;;;;8.13;6.57;;;19.00;99.90;;;;;;4995288;28;20433;-75
2022/08/05 02:38:45;;;;;;;8.00;6.13;;;18.90;99.90;;;;;;4977938;28;20452;-75
2022/08/05 02:41:22;;;;;;;8.80;6.87;;;18.90;99.90;;;;;;4995404;28;20511;-75
2022/08/05 02:44:07;;;;;;;11.20;7.10;;;18.90;99.90;;;;;;4977866;28;20468;-75
2022/08/05 02:46:44;;;;;;;11.13;6.83;;;18.80;99.90;;;;;;4994056;28;20480;-75
2022/08/05 02:49:30;;;;;;;8.43;7.00;;;18.80;99.90;;;;;;4993843;28;20926;-75
2022/08/05 02:52:07;;;;;;;6.90;6.30;;;18.80;99.90;;;;;;4995410;28;20452;-75
2022/08/05 02:54:38;;;;;;;8.20;6.47;;;18.80;99.90;;;;;;4977741;28;21072;-75
2022/08/05 02:57:13;;;;;;;7.50;6.40;;;18.80;99.90;;;;;;4977928;28;20453;-75
2022/08/05 03:00:01;;;;;;;9.13;6.70;;;18.70;99.90;;;;;;4995154;28;20532;-75
2022/08/05 03:02:36;;;;;;;8.50;6.87;;;18.70;99.90;;;;;;4994842;28;20459;-75
2022/08/05 03:05:07;;;;;;;8.23;7.40;;;18.70;99.90;;;;;;4993432;28;20499;-75
2022/08/05 03:07:38;;;;;;;7.13;6.43;;;18.70;99.90;;;;;;4993448;28;20449;-75
2022/08/05 03:10:26;;;;;;;7.50;6.80;;;18.70;99.90;;;;;;4995163;28;20834;-75
2022/08/05 03:12:55;;;;;;;8.50;7.20;;;18.70;99.90;;;;;;4977313;28;20472;-75
2022/08/05 03:15:23;;;;;;;7.77;6.33;;;18.70;99.90;;;;;;4977269;28;20842;-75
2022/08/05 03:17:54;;;;;;;9.47;7.17;;;18.60;99.90;;;;;;4977299;28;20507;-75
2022/08/05 03:20:25;;;;;;;8.93;7.97;;;18.70;99.90;;;;;;4977897;28;20441;-75
2022/08/05 03:22:55;;;;;;;12.57;7.93;;;18.60;99.90;;;;;;4977561;28;20445;-75
2022/08/05 03:25:25;;;;;;;11.57;9.47;;;18.70;99.90;;;;;;4995323;28;20465;-75
2022/08/05 03:28:14;;;;;;;10.43;9.27;;;18.60;99.90;;;;;;4995006;28;20452;-76
2022/08/05 03:30:48;;;;;;;14.40;10.00;;;18.60;99.90;;;;;;4994630;28;20508;-75
2022/08/05 03:33:17;;;;;;;8.83;7.93;;;18.60;99.90;;;;;;4994319;28;20468;-76
2022/08/05 03:35:46;;;;;;;9.73;8.80;;;18.60;99.90;;;;;;4976845;28;20857;-75
2022/08/05 03:38:17;;;;;;;9.90;8.70;;;18.60;99.90;;;;;;4994485;28;20464;-76
2022/08/05 03:41:01;;;;;;;9.03;7.23;;;18.60;99.90;;;;;;4994408;28;20432;-75
2022/08/05 03:43:38;;;;;;;8.23;7.37;;;18.60;99.90;;;;;;4994517;28;20511;-75
2022/08/05 03:46:26;;;;;;;9.17;7.53;;;18.60;99.90;;;;;;4994707;28;20507;-76
2022/08/05 03:49:00;;;;;;;8.47;7.10;;;18.60;99.90;;;;;;4994557;28;20763;-75
2022/08/05 03:51:32;;;;;;;9.70;7.07;;;18.60;99.90;;;;;;4992892;28;20437;-75
2022/08/05 03:54:30;;;;;;;7.90;7.10;;;18.60;99.90;;;;;;4994220;28;20534;-76
2022/08/05 03:57:24;;;;;;;8.43;7.57;;;18.50;99.90;;;;;;4994151;28;20445;-75
2022/08/05 04:00:12;;;;;;;7.70;7.00;;;18.50;99.90;;;;;;4994267;28;20429;-75
2022/08/05 04:02:46;;;;;;;10.20;7.63;;;18.50;99.90;;;;;;4994526;28;20421;-76
2022/08/05 04:05:31;;;;;;;8.23;7.33;;;18.50;99.90;;;;;;4976688;28;20551;-76
2022/08/05 04:08:03;;;;;;;8.27;7.47;;;18.60;99.90;;;;;;4994033;28;20419;-75
2022/08/05 04:10:43;;;;;;;8.63;7.10;;;18.50;99.90;;;;;;4995614;28;20878;-75
2022/08/05 04:13:11;;;;;;;10.47;8.90;;;18.50;99.90;;;;;;4976905;28;20515;-75
2022/08/05 04:15:40;;;;;;;10.43;9.07;;;18.60;99.90;;;;;;4994362;28;20456;-75
2022/08/05 04:18:29;;;;;;;10.00;8.33;;;18.50;99.90;;;;;;4994320;28;20788;-74
2022/08/05 04:20:58;;;;;;;8.50;7.70;;;18.60;99.90;;;;;;4976381;28;20834;-75
2022/08/05 04:23:28;;;;;;;8.93;7.83;;;18.60;99.90;;;;;;4993857;28;20819;-75
2022/08/05 04:26:16;;;;;;;10.33;8.97;;;18.60;99.90;;;;;;4994292;28;20439;-75
2022/08/05 04:28:45;;;;;;;10.80;8.20;;;18.60;99.90;;;;;;4992658;28;20544;-75
2022/08/05 04:31:19;;;;;;;9.93;8.60;;;18.60;99.90;;;;;;4994227;28;20432;-75
2022/08/05 04:33:47;;;;;;;10.47;9.40;;;18.60;99.90;;;;;;4992478;28;20480;-75
2022/08/05 04:36:37;;;;;;;9.90;8.73;;;18.60;99.90;;;;;;4994193;28;20848;-75
2022/08/05 04:39:17;;;;;;;10.40;9.40;;;18.60;99.90;;;;;;4976403;28;20524;-75
2022/08/05 04:41:45;;;;;;;9.67;8.33;;;18.60;99.90;;;;;;4979748;28;20441;-75
2022/08/05 04:44:15;;;;;;;11.53;8.93;;;18.60;99.90;;;;;;4998024;28;20834;-75
2022/08/05 04:46:57;;;;;;;10.77;9.63;;;18.60;99.90;;;;;;4997334;28;20922;-75
2022/08/05 04:49:25;;;;;;;10.80;9.70;;;18.70;99.90;;;;;;4997635;28;20930;-75
2022/08/05 04:52:15;;;;;;;9.87;8.97;;;18.70;99.90;;;;;;4996105;28;20497;-75
2022/08/05 04:54:45;;;;;;;12.00;8.60;;;18.70;99.90;;;;;;4997487;28;20468;-75
2022/08/05 04:57:16;;;;;;;11.53;10.23;;;18.70;99.90;;;;;;4979986;28;20444;-75
2022/08/05 04:59:44;;;;;;;14.40;11.30;;;18.70;99.90;;;;;;4997222;28;20988;-75
2022/08/05 05:02:15;;;;;;;11.57;10.37;;;18.70;99.90;;;;;;4998616;28;20471;-76
2022/08/05 05:05:03;;;;;;;14.47;11.60;;;18.70;99.90;;;;;;4997527;28;20551;-75
2022/08/05 05:07:53;;;;;;;11.60;10.40;;;18.70;99.90;;;;;;4999770;28;20516;-75
2022/08/05 05:10:28;;;;;;;12.53;9.90;;;18.70;99.90;;;;;;4999600;28;20454;-75
2022/08/05 05:12:56;;;;;;;12.73;11.30;;;18.70;99.90;;;;;;4998316;28;20469;-75
2022/08/05 05:15:25;;;;;;;12.77;10.50;;;18.70;99.90;;;;;;4999397;28;20563;-75
2022/08/05 05:18:15;;;;;;;12.30;11.10;;;18.70;99.90;;;;;;5008812;28;20445;-75
2022/08/05 05:20:58;;;;;;;16.40;11.70;;;18.70;99.90;;;;;;5007905;28;20482;-75
2022/08/05 05:23:28;;;;;;;15.57;10.90;;;18.70;99.90;;;;;;5003429;28;20464;-76
2022/08/05 05:26:16;;;;;;;13.37;11.10;;;18.70;99.90;;;;;;4997760;28;20476;-76
2022/08/05 05:28:45;;;;;;;13.80;11.20;;;18.70;99.90;;;;;;4979562;28;21053;-75
2022/08/05 05:31:13;;;;;;;12.83;11.50;;;18.70;99.90;;;;;;4979333;28;20950;-75
2022/08/05 05:33:45;;;;;;;12.10;10.90;;;18.70;99.90;;;;;;4997453;28;20480;-75
2022/08/05 05:36:27;;;;;;;11.90;10.70;;;18.80;99.90;;;;;;4995628;28;20531;-75
2022/08/05 05:38:58;;;;;;;12.87;10.97;;;18.80;99.90;;;;;;4979475;28;21032;-76
2022/08/05 05:41:27;;;;;;;12.40;11.20;;;18.90;99.90;;;;;;4979593;28;20433;-75
2022/08/05 05:44:09;;;;;;;12.40;11.20;;;18.80;99.90;;;;;;4997775;28;20963;-78
2022/08/05 05:46:58;;;;;;;12.47;10.93;;;18.80;99.90;;;;;;4980316;28;20437;-77
2022/08/05 05:49:34;;;;;;;12.10;10.90;;;18.80;99.90;;;;;;4996215;28;20950;-77
2022/08/05 05:52:03;;;;;;;13.00;11.07;;;18.80;99.90;;;;;;4978487;28;20440;-78
2022/08/05 05:54:35;;;;;;;15.43;11.27;;;18.80;99.90;;;;;;4995978;28;21002;-77
2022/08/05 05:57:19;;;;;;;11.10;10.00;;;18.80;99.90;;;;;;4974692;28;20446;-77
2022/08/05 05:59:48;;;;;;;14.53;10.23;;;18.80;99.90;;;;;;4973876;28;20474;-77
2022/08/05 06:02:17;;;;;;;11.17;10.07;;;18.80;99.90;;;;;;4974769;28;20489;-77
2022/08/05 06:05:06;;;;;;;11.53;10.53;;;18.80;99.90;;;;;;4975934;28;20546;-77
2022/08/05 06:07:45;;;;;;;10.87;9.10;;;18.80;99.90;;;;;;4977719;28;20453;-77
2022/08/05 06:10:30;;;;;;;11.77;10.57;;;18.80;99.90;;;;;;4975928;28;21027;-77
2022/08/05 06:13:05;;;;;;;11.27;10.17;;;18.80;99.90;;;;;;4976349;28;20516;-77
2022/08/05 06:15:33;;;;;;;12.90;10.17;;;18.80;99.90;;;;;;4977466;28;20497;-77
2022/08/05 06:18:22;;;;;;;13.43;11.00;;;18.80;99.90;;;;;;4977648;28;20450;-77
2022/08/05 06:20:59;;;;;;;12.20;10.23;;;18.80;99.90;;;;;;4976288;28;20496;-77
2022/08/05 06:23:27;;;;;;;11.13;10.13;;;18.80;99.90;;;;;;4975853;28;20446;-78
2022/08/05 06:26:13;;;;;;;12.20;10.90;;;18.80;99.90;;;;;;4977623;28;20442;-77
2022/08/05 06:28:51;;;;;;;13.30;10.67;;;18.90;99.90;;;;;;4992327;28;20544;-77
2022/08/05 06:31:19;;;;;;;11.47;10.40;;;18.80;99.90;;;;;;4977079;28;20970;-77
2022/08/05 06:33:50;;;;;;;11.20;10.10;;;18.80;99.90;;;;;;4976896;28;20488;-77
2022/08/05 06:36:35;;;;;;;12.00;9.30;;;18.80;99.90;;;;;;4975733;28;20469;-77
2022/08/05 06:39:24;;;;;;;9.90;8.93;;;18.80;99.90;;;;;;4976755;28;20462;-77
2022/08/05 06:41:56;;;;;;;10.70;9.70;;;18.80;99.90;;;;;;4975265;28;20512;-77
2022/08/05 06:44:26;;;;;;;9.10;8.20;;;18.90;99.90;;;;;;4991584;28;20470;-77
2022/08/05 06:46:54;;;;;;;9.87;8.90;;;18.90;99.90;;;;;;4975591;28;20449;-77
2022/08/05 06:49:24;;;;;;;10.83;8.97;;;18.90;99.90;;;;;;4976917;28;20500;-77
2022/08/05 06:52:12;;;;;;;10.63;9.43;;;18.90;99.90;;;;;;4977043;28;20436;-77
2022/08/05 06:55:00;;;;;;;10.50;9.40;;;18.90;99.90;;;;;;4976406;28;20513;-77
2022/08/05 06:57:31;;;;;;;10.73;9.60;;;18.90;99.90;;;;;;4975764;28;20457;-77
2022/08/05 07:00:19;;;;;;;11.70;9.50;;;18.90;99.90;;;;;;4979784;28;20481;-78
2022/08/05 07:02:51;;;;;;;10.40;9.40;;;18.90;99.90;;;;;;4978402;28;20476;-78
2022/08/05 07:05:21;;;;;;;10.50;9.10;;;18.90;99.90;;;;;;4977261;28;20458;-78
2022/08/05 07:08:06;;;;;;;10.70;8.97;;;18.90;99.90;;;;;;4979977;28;20860;-78
2022/08/05 07:10:39;;;;;;;9.90;8.90;;;18.90;99.90;;;;;;4979905;28;20878;-78
2022/08/05 07:19:34;;;;;;;10.60;9.60;;;18.90;99.90;;;;;;4976154;28;20553;-78
2022/08/05 07:22:22;;;;;;;10.73;9.63;;;19.00;99.90;;;;;;4978797;28;20437;-78
2022/08/05 07:25:00;;;;;;;11.30;10.10;;;19.00;99.90;;;;;;4978879;28;20439;-78
2022/08/05 07:27:49;;;;;;;11.70;10.40;;;19.00;99.90;;;;;;4980436;28;20448;-79
2022/08/05 07:30:32;;;;;;;11.20;10.00;;;19.00;99.90;;;;;;4980434;28;20495;-78
2022/08/05 07:33:02;;;;;;;10.73;9.70;;;19.00;99.90;;;;;;4979162;28;20927;-78
2022/08/05 07:35:37;;;;;;;11.37;10.33;;;19.00;99.90;;;;;;4981642;28;20496;-79
2022/08/05 07:38:26;;;;;;;10.67;9.57;;;19.00;99.90;;;;;;4980197;28;20453;-79
2022/08/05 07:41:04;;;;;;;10.67;9.67;;;19.00;99.90;;;;;;4980328;28;20524;-79
2022/08/05 07:43:52;;;;;;;11.00;9.90;;;19.00;99.90;;;;;;4981380;28;20903;-80
2022/08/05 07:46:25;;;;;;;11.23;9.93;;;19.00;99.90;;;;;;4981681;28;20460;-80
2022/08/05 07:48:55;;;;;;;11.23;10.13;;;19.00;99.90;;;;;;4983005;28;20429;-80
2022/08/05 07:51:37;;;;;;;10.67;9.47;;;19.00;99.90;;;;;;4982932;28;20469;-80
2022/08/05 07:54:16;;;;;;;10.50;9.50;;;19.00;99.90;;;;;;4982723;28;20477;-81
2022/08/05 07:56:46;;;;;;;10.10;9.10;;;19.00;99.90;;;;;;4983548;28;20469;-79
2022/08/05 07:59:34;;;;;;;10.70;9.70;;;19.10;99.90;;;;;;4981730;28;20452;-79
2022/08/05 08:02:09;;;;;;;10.33;9.33;;;19.10;99.90;;;;;;4981083;28;20474;-79
2022/08/05 08:04:46;;;;;;;11.13;10.00;;;19.10;99.90;;;;;;4996543;28;20553;-79
2022/08/05 08:07:16;;;;;;;11.70;9.77;;;19.10;99.90;;;;;;4996757;28;20452;-79
2022/08/05 08:09:49;;;;;;;11.10;9.97;;;19.00;99.90;;;;;;4981469;28;20438;-79
2022/08/05 08:12:20;;;;;;;11.50;10.10;;;19.00;99.90;;;;;;4983281;28;20421;-80
2022/08/05 08:15:09;;;;;;;12.33;9.57;;;19.00;99.90;;;;;;4984252;28;20484;-79
2022/08/05 08:17:45;;;;;;;11.33;9.90;;;19.00;99.90;;;;;;4988128;28;20441;-79
2022/08/05 08:20:21;;;;;;;12.70;10.47;;;19.00;99.90;;;;;;4988266;28;20832;-79
2022/08/05 08:23:09;;;;;;;11.10;9.93;;;19.00;99.90;;;;;;4989064;28;20449;-80
2022/08/05 08:25:58;;;;;;;14.60;10.70;;;19.00;99.90;;;;;;4986300;28;20437;-80
2022/08/05 08:28:32;;;;;;;10.30;9.50;;;18.90;99.90;;;;;;4990115;28;20429;-80
2022/08/05 08:31:20;;;;;;;10.03;9.07;;;19.00;99.90;;;;;;4989148;28;20453;-81
2022/08/05 08:33:50;;;;;;;10.43;9.33;;;19.00;99.90;;;;;;5005005;28;20560;-80
2022/08/05 08:36:20;;;;;;;10.90;9.90;;;19.00;99.90;;;;;;4990513;28;20418;-81
2022/08/05 08:39:08;;;;;;;10.63;9.60;;;19.00;99.90;;;;;;4990048;28;20806;-80
2022/08/05 08:41:43;;;;;;;10.97;9.17;;;19.00;99.90;;;;;;4990707;28;20492;-81
2022/08/05 08:44:28;;;;;;;10.37;9.23;;;19.00;99.90;;;;;;4989817;28;20470;-79
2022/08/05 08:47:22;;;;;;;10.67;9.70;;;19.00;99.90;;;;;;4988822;28;20492;-80
2022/08/05 08:50:12;;;;;;;10.07;9.20;;;19.00;99.90;;;;;;4990006;28;20457;-80
2022/08/05 08:53:04;;;;;;;9.60;8.73;;;19.00;99.90;;;;;;4988154;28;20449;-80
2022/08/05 08:55:35;;;;;;;9.17;8.33;;;19.00;99.90;;;;;;4988021;28;20492;-81
2022/08/05 08:58:23;;;;;;;9.60;8.60;;;19.00;99.90;;;;;;4989794;28;20425;-81
2022/08/05 09:01:06;;;;;;;12.10;9.33;;;19.00;99.90;;;;;;5004638;28;20945;-81
2022/08/05 09:03:46;;;;;;;10.27;9.33;;;19.00;99.90;;;;;;4986728;28;20903;-82
2022/08/05 09:06:16;;;;;;;10.67;9.60;;;19.00;99.90;;;;;;4981899;28;20465;-81
2022/08/05 09:08:54;;;;;;;10.97;10.00;;;19.10;99.90;;;;;;4982340;28;20496;-80
2022/08/05 09:11:23;;;;;;;10.43;9.37;;;19.10;99.90;;;;;;4987202;28;20449;-80
2022/08/05 09:14:11;;;;;;;11.63;10.30;;;19.10;99.90;;;;;;4986551;28;20473;-80
2022/08/05 09:17:01;;;;;;;10.60;9.57;;;19.10;99.90;;;;;;4993644;28;20437;-79
2022/08/05 09:19:43;;;;;;;10.50;9.70;;;19.10;99.90;;;;;;4993504;28;20421;-79
2022/08/05 09:23:06;;;;;;;9.37;8.53;;;19.10;99.90;;;;;;4999650;28;20504;-78
2022/08/05 09:25:49;;;;;;;10.73;9.73;;;19.10;99.90;;;;;;4988800;28;20457;-79
2022/08/05 09:28:32;;;;;;;10.17;9.27;;;19.10;99.90;;;;;;4984936;28;20441;-79
2022/08/05 09:31:04;;;;;;;9.63;8.63;;;19.10;99.90;;;;;;4984314;28;20446;-79
2022/08/05 09:33:55;;;;;;;10.40;9.40;;;19.10;99.90;;;;;;4985627;28;20472;-79
2022/08/05 09:36:23;;;;;;;9.47;8.50;;;19.00;99.90;;;;;;4984871;28;20477;-79
2022/08/05 09:39:04;;;;;;;10.23;9.20;;;19.00;99.90;;;;;;4986430;28;20426;-80
2022/08/05 09:41:56;;;;;;;11.17;9.37;;;19.00;99.90;;;;;;4983811;28;20450;-79
2022/08/05 09:44:36;;;;;;;8.80;7.67;;;18.90;99.90;;;;;;4984996;28;20460;-79
2022/08/05 09:47:10;;;;;;;8.97;8.17;;;19.00;99.90;;;;;;4985492;28;20465;-79
2022/08/05 09:49:46;;;;;;;9.67;8.67;;;19.00;99.90;;;;;;4987213;28;20942;-80
2022/08/05 09:52:30;;;;;;;9.77;8.80;;;18.90;99.90;;;;;;5000085;28;20976;-80
2022/08/05 09:55:01;;;;;;;9.30;7.93;;;18.90;99.90;;;;;;4984265;28;20489;-80
2022/08/05 09:57:50;;;;;;;12.53;8.50;;;18.90;99.90;;;;;;4987729;28;20434;-80
2022/08/05 10:00:23;;;;;;;14.17;9.40;;;18.90;99.90;;;;;;5013014;28;20521;-80
2022/08/05 10:02:53;;;;;;;8.97;7.57;;;19.00;99.90;;;;;;4998027;28;20497;-81
2022/08/05 10:05:28;;;;;;;7.27;5.90;;;19.00;99.90;;;;;;4996208;28;20458;-80
2022/08/05 10:08:01;;;;;;;7.10;6.40;;;18.90;99.90;;;;;;4995622;28;20497;-80
2022/08/05 10:10:51;;;;;;;6.40;5.80;;;18.90;99.90;;;;;;4991581;28;20445;-79
2022/08/05 10:13:34;;;;;;;6.30;5.70;;;18.80;99.90;;;;;;4996051;28;20438;-80
2022/08/05 10:16:35;;;;;;;6.27;5.63;;;18.80;99.90;;;;;;4995781;28;20473;-79
2022/08/05 10:19:20;;;;;;;6.60;6.00;;;18.80;99.90;;;;;;5011325;28;20460;-80
2022/08/05 10:22:08;;;;;;;5.97;5.40;;;18.80;99.90;;;;;;4999845;28;20476;-80
2022/08/05 10:24:56;;;;;;;7.03;6.20;;;18.90;99.90;;;;;;5014878;28;20554;-80
2022/08/05 10:27:27;;;;;;;5.57;5.07;;;18.90;99.90;;;;;;5000569;28;20445;-81
2022/08/05 10:30:15;;;;;;;5.40;4.80;;;18.90;99.90;;;;;;4988582;28;20568;-80
2022/08/05 10:33:06;;;;;;;5.27;4.73;;;19.00;99.90;;;;;;4987243;28;20452;-80
2022/08/05 10:35:42;;;;;;;6.37;5.77;;;18.90;99.90;;;;;;4983536;28;20532;-80
2022/08/05 10:38:13;;;;;;;5.80;5.13;;;18.90;99.90;;;;;;4982969;28;20438;-80
2022/08/05 10:40:52;;;;;;;6.93;6.20;;;19.00;99.90;;;;;;4982519;28;20473;-80
2022/08/05 10:43:36;;;;;;;7.07;5.90;;;19.10;99.90;;;;;;4980619;28;20464;-80
2022/08/05 10:46:07;;;;;;;6.37;5.73;;;19.10;99.90;;;;;;4982165;28;20434;-79
2022/08/05 10:48:37;;;;;;;6.93;6.33;;;19.10;99.90;;;;;;4984282;28;20452;-79
2022/08/05 10:51:26;;;;;;;6.37;5.77;;;19.20;99.90;;;;;;4984992;28;20452;-80
2022/08/05 10:53:57;;;;;;;7.93;7.20;;;19.20;99.90;;;;;;4986413;28;20461;-79
2022/08/05 10:56:30;;;;;;;8.53;7.80;;;19.30;99.90;;;;;;4985254;28;20473;-80
2022/08/05 10:59:05;;;;;;;7.83;7.07;;;19.30;99.90;;;;;;4984413;28;20481;-79
2022/08/05 11:02:06;;;;;;;8.33;7.53;;;19.30;99.90;;;;;;4985355;28;20477;-80
2022/08/05 11:04:46;;;;;;;8.00;7.30;;;19.30;99.90;;;;;;4984838;28;20560;-79
2022/08/05 11:07:17;;;;;;;7.47;6.77;;;19.30;99.90;;;;;;4984737;28;21005;-79
2022/08/05 11:10:01;;;;;;;6.90;6.30;;;19.40;99.90;;;;;;4984825;28;20796;-80
2022/08/05 11:12:47;;;;;;;8.33;6.10;;;19.40;99.90;;;;;;4984528;28;20445;-80
2022/08/05 11:15:29;;;;;;;6.63;5.53;;;19.50;99.90;;;;;;4984461;28;20512;-79
2022/08/05 11:18:27;;;;;;;6.67;5.40;;;19.50;99.90;;;;;;4985996;28;20521;-80
2022/08/05 11:21:02;;;;;;;5.60;5.00;;;19.60;99.90;;;;;;5000045;28;20801;-79
2022/08/05 11:23:43;;;;;;;4.97;4.50;;;19.60;99.90;;;;;;4985095;28;20421;-80
2022/08/05 11:26:32;;;;;;;4.40;4.00;;;19.70;99.90;;;;;;4986167;28;20430;-80
2022/08/05 11:29:05;;;;;;;6.37;3.80;;;19.70;99.90;;;;;;4984854;28;20453;-79
2022/08/05 11:31:44;;;;;;;5.57;5.03;;;19.80;99.90;;;;;;4984381;28;20449;-80
2022/08/05 11:34:37;;;;;;;4.90;4.30;;;19.90;99.90;;;;;;4983491;28;20497;-79
2022/08/05 11:37:06;;;;;;;5.87;4.33;;;20.00;99.90;;;;;;4999461;28;20462;-79
2022/08/05 11:39:54;;;;;;;6.33;4.63;;;20.00;99.90;;;;;;4983853;28;20934;-79
2022/08/05 11:42:33;;;;;;;6.20;5.60;;;20.10;99.90;;;;;;4983638;28;20442;-79
2022/08/05 11:45:08;;;;;;;6.10;5.37;;;20.20;99.90;;;;;;4982639;28;21138;-79
2022/08/05 11:47:58;;;;;;;6.03;5.37;;;20.20;99.90;;;;;;4982477;28;20927;-79
2022/08/05 11:50:27;;;;;;;7.20;5.63;;;20.30;99.90;;;;;;4982022;28;20438;-79
2022/08/05 11:52:56;;;;;;;5.57;5.03;;;20.30;99.90;;;;;;4983361;28;20468;-79
2022/08/05 11:55:26;;;;;;;6.23;5.03;;;20.40;99.90;;;;;;4998594;28;21033;-79
2022/08/05 11:58:04;;;;;;;6.17;4.70;;;20.40;99.90;;;;;;4997249;28;20505;-79
2022/08/05 12:00:39;;;;;;;5.40;4.10;;;20.50;99.90;;;;;;4982994;28;20496;-79
2022/08/05 12:03:20;;;;;;;7.00;5.40;;;20.50;99.90;;;;;;4983569;28;20422;-79
2022/08/05 12:06:00;;;;;;;5.57;5.07;;;20.60;99.90;;;;;;4982816;28;20471;-79
2022/08/05 12:08:30;;;;;;;5.63;4.63;;;20.70;99.90;;;;;;4981633;28;20484;-79
2022/08/05 12:11:02;;;;;;;4.70;4.30;;;20.70;99.90;;;;;;4983682;28;20441;-79
2022/08/05 12:13:34;;;;;;;4.70;4.30;;;20.80;99.90;;;;;;4982264;28;20516;-78
2022/08/05 12:16:18;;;;;;;4.67;4.27;;;20.80;99.90;;;;;;4997535;28;20461;-79
2022/08/05 12:18:57;;;;;;;6.23;5.13;;;20.80;99.90;;;;;;4984404;28;20436;-79
2022/08/05 12:21:28;;;;;;;5.97;5.37;;;20.90;99.90;;;;;;4983657;28;20927;-78
2022/08/05 12:24:02;;;;;;;5.67;4.80;;;21.00;99.90;;;;;;4984521;28;20461;-79
2022/08/05 12:26:33;;;;;;;5.60;4.70;;;21.10;99.90;;;;;;5000801;28;20641;-78
2022/08/05 12:29:04;;;;;;;7.53;6.90;;;21.20;99.90;;;;;;4984180;28;20469;-79
2022/08/05 12:31:37;;;;;;;6.40;5.77;;;21.30;99.90;;;;;;4983463;28;20458;-78
2022/08/05 12:34:19;;;;;;;6.33;5.73;;;21.40;99.90;;;;;;4983595;28;20468;-79
2022/08/05 12:36:53;;;;;;;7.00;6.40;;;21.40;99.90;;;;;;4986168;28;20493;-79
2022/08/05 12:39:22;;;;;;;7.47;6.87;;;21.40;99.90;;;;;;4984431;28;20465;-79
2022/08/05 12:42:09;;;;;;;6.17;5.60;;;21.40;99.90;;;;;;4983036;28;20442;-79
2022/08/05 12:44:43;;;;;;;10.83;6.17;;;21.40;99.90;;;;;;4998426;28;20476;-78
2022/08/05 12:47:12;;;;;;;9.33;5.60;;;21.50;99.90;;;;;;4984447;28;20434;-79
2022/08/05 12:49:47;;;;;;;6.80;5.70;;;21.50;99.90;;;;;;4986010;28;20418;-78
2022/08/05 12:52:34;;;;;;;8.50;5.90;;;21.60;99.90;;;;;;4986387;28;20453;-78
2022/08/05 12:55:20;;;;;;;8.03;6.03;;;21.60;99.90;;;;;;4985900;28;20531;-78
2022/08/05 12:57:52;;;;;;;6.13;5.63;;;21.70;99.90;;;;;;4984172;28;20469;-78
2022/08/05 13:00:46;;;;;;;6.40;5.90;;;21.70;99.90;;;;;;4982599;28;20920;-80
2022/08/05 13:03:38;;;;;;;6.77;6.27;;;21.70;99.90;;;;;;4990015;28;20449;-79
2022/08/05 13:06:15;;;;;;;7.43;6.83;;;21.80;99.90;;;;;;4988997;28;20440;-79
2022/08/05 13:08:46;;;;;;;8.17;5.40;;;21.80;99.90;;;;;;4988866;28;20441;-79
2022/08/05 13:11:20;;;;;;;5.60;5.10;;;21.80;99.90;;;;;;4989675;28;20452;-79
2022/08/05 13:14:16;;;;;;;6.20;4.80;;;21.80;99.90;;;;;;4987886;28;20808;-79
2022/08/05 13:16:52;;;;;;;6.80;4.43;;;21.70;99.90;;;;;;4989132;28;20480;-79
2022/08/05 13:19:25;;;;;;;4.67;4.20;;;21.70;99.90;;;;;;4987486;28;20859;-79
2022/08/05 13:21:55;;;;;;;3.93;3.63;;;21.70;99.90;;;;;;4984268;28;20485;-79
2022/08/05 13:24:24;;;;;;;5.53;4.00;;;21.70;99.90;;;;;;4987720;28;20473;-79
2022/08/05 13:27:12;;;;;;;4.00;3.60;;;21.80;99.90;;;;;;4987801;28;20445;-79
2022/08/05 13:30:01;;;;;;;3.67;3.37;;;21.80;99.90;;;;;;4989138;28;20445;-79
2022/08/05 13:32:50;;;;;;;4.60;3.40;;;21.80;99.90;;;;;;4989749;28;20453;-79
2022/08/05 13:35:20;;;;;;;4.60;4.20;;;21.90;99.90;;;;;;4989932;28;20998;-79
2022/08/05 13:38:10;;;;;;;4.93;3.17;;;21.90;99.90;;;;;;4988641;28;20494;-79
2022/08/05 13:40:58;;;;;;;6.77;3.60;;;21.90;99.90;;;;;;4985151;28;20430;-79
2022/08/05 13:43:27;;;;;;;5.80;4.00;;;21.90;99.90;;;;;;4985866;28;20521;-78